createdAt,value
2018-02-17T08:40:59.746Z,4.1
2018-02-17T08:42:03.427Z,5.5
2018-02-17T08:43:06.314Z,6.8
2018-02-17T08:44:09.233Z,7.6
2018-02-17T08:45:12.040Z,7.9
2018-02-17T08:46:14.789Z,8.3
2018-02-17T08:47:21.865Z,8.3
2018-02-17T08:48:24.640Z,8.6
2018-02-17T08:49:27.291Z,8.7
2018-02-17T08:50:30.139Z,8.6
2018-02-17T08:51:33.060Z,8.6
2018-02-17T08:52:35.824Z,8.9
2018-02-17T08:53:38.616Z,9.2
2018-02-17T08:54:41.313Z,9.2
2018-02-17T08:55:44.104Z,9.5
2018-02-17T08:56:46.719Z,9.6
2018-02-17T08:57:55.876Z,9.9
2018-02-17T08:58:58.977Z,10.1
2018-02-17T09:00:02.073Z,10.3
2018-02-17T09:01:04.926Z,10.3
2018-02-17T09:02:08.176Z,10.6
2018-02-17T09:03:11.900Z,10.8
2018-02-17T09:04:15.090Z,10.9
2018-02-17T09:05:17.964Z,11
2018-02-17T09:06:21.858Z,11.1
2018-02-17T09:07:24.653Z,11.4
2018-02-17T09:08:27.454Z,11.5
2018-02-17T09:09:30.280Z,11.6
2018-02-17T09:10:33.168Z,11.8
2018-02-17T09:11:35.829Z,12
2018-02-17T09:12:38.598Z,12.1
2018-02-17T09:13:43.621Z,12.4
2018-02-17T09:14:46.632Z,12.5
2018-02-17T09:15:49.473Z,12.7
2018-02-17T09:16:52.389Z,12.8
2018-02-17T09:17:55.016Z,13
2018-02-17T09:18:57.612Z,13.2
2018-02-17T09:20:00.349Z,13.3
2018-02-17T09:21:03.289Z,13.2
2018-02-17T09:22:06.420Z,13.4
2018-02-17T09:23:09.145Z,13.5
2018-02-17T09:24:12.214Z,13.7
2018-02-17T09:25:15.236Z,13.8
2018-02-17T09:26:18.248Z,13.8
2018-02-17T09:27:20.982Z,13.9
2018-02-17T09:28:24.213Z,13.9
2018-02-17T09:29:27.082Z,14
2018-02-17T09:30:29.772Z,14
2018-02-17T09:31:32.516Z,14.2
2018-02-17T09:32:35.211Z,14.3
2018-02-17T09:33:39.033Z,14.3
2018-02-17T09:34:41.823Z,14.4
2018-02-17T09:35:44.517Z,14.4
2018-02-17T09:36:47.774Z,14.5
2018-02-17T09:37:51.770Z,14.5
2018-02-17T09:38:55.864Z,14.5
2018-02-17T09:40:01.633Z,14.6
2018-02-17T09:41:05.688Z,14.8
2018-02-17T09:42:09.815Z,14.8
2018-02-17T09:43:12.865Z,15
2018-02-17T09:44:15.542Z,15
2018-02-17T09:45:18.331Z,15.1
2018-02-17T09:46:20.917Z,15.2
2018-02-17T09:47:23.754Z,15.2
2018-02-17T09:48:26.433Z,15.3
2018-02-17T09:49:29.398Z,15.3
2018-02-17T09:50:32.665Z,15.4
2018-02-17T09:51:36.044Z,15.6
2018-02-17T09:52:40.047Z,15.7
2018-02-17T09:53:43.265Z,15.6
2018-02-17T09:54:47.218Z,15.7
2018-02-17T09:55:50.938Z,15.8
2018-02-17T09:56:59.076Z,15.6
2018-02-17T09:58:02.254Z,15.8
2018-02-17T09:59:05.251Z,15.8
2018-02-17T10:00:08.152Z,15.7
2018-02-17T10:01:11.284Z,15.8
2018-02-17T10:02:14.707Z,15.8
2018-02-17T10:03:17.646Z,15.9
2018-02-17T10:04:20.550Z,16.1
2018-02-17T10:05:23.467Z,16.1
2018-02-17T10:06:26.183Z,16.1
2018-02-17T10:07:28.852Z,16.1
2018-02-17T10:08:31.707Z,16.2
2018-02-17T10:09:35.307Z,16.1
2018-02-17T10:10:38.438Z,16.2
2018-02-17T10:11:41.414Z,16.1
2018-02-17T10:12:45.124Z,15.7
2018-02-17T10:13:51.072Z,15.8
2018-02-17T10:14:54.375Z,15.8
2018-02-17T10:16:00.708Z,15.8
2018-02-17T10:17:04.867Z,15.8
2018-02-17T10:19:18.918Z,15.8
2018-02-17T10:22:47.931Z,15.7
2018-02-17T10:23:50.802Z,15.8
2018-02-17T10:24:53.648Z,15.8
2018-02-17T10:26:00.180Z,15.6
2018-02-17T10:27:04.091Z,15.6
2018-02-17T10:28:10.419Z,15.6
2018-02-17T10:29:19.787Z,15.5
2018-02-17T10:30:23.110Z,15.5
2018-02-17T10:31:25.829Z,15.4
2018-02-17T10:32:28.543Z,15.6
2018-02-17T10:33:31.332Z,15.5
2018-02-17T10:34:34.107Z,15.3
2018-02-17T10:35:37.029Z,15.4
2018-02-17T10:36:39.986Z,15.4
2018-02-17T10:37:42.931Z,15.4
2018-02-17T10:38:45.713Z,15.3
2018-02-17T10:39:48.499Z,15.2
2018-02-17T10:40:51.243Z,15.1
2018-02-17T10:41:59.093Z,15.3
2018-02-17T10:43:02.398Z,15.2
2018-02-17T10:44:05.880Z,15.2
2018-02-17T10:45:08.824Z,15.2
2018-02-17T10:46:11.887Z,15.1
2018-02-17T10:47:15.380Z,15.1
2018-02-17T10:48:18.527Z,15.1
2018-02-17T10:49:21.248Z,15.1
2018-02-17T10:50:24.330Z,15.1
2018-02-17T10:51:27.989Z,15
2018-02-17T10:52:31.400Z,15
2018-02-17T10:53:35.651Z,14.9
2018-02-17T10:54:39.421Z,14.9
2018-02-17T10:55:42.530Z,14.8
2018-02-17T10:56:48.731Z,14.9
2018-02-17T10:57:56.674Z,14.9
2018-02-17T10:58:59.615Z,14.8
2018-02-17T11:00:02.663Z,14.8
2018-02-17T11:01:05.505Z,14.7
2018-02-17T11:02:08.671Z,14.8
2018-02-17T11:03:11.849Z,14.7
2018-02-17T11:04:14.919Z,14.6
2018-02-17T11:05:17.917Z,14.6
2018-02-17T11:06:21.047Z,14.6
2018-02-17T11:08:36.008Z,14.6
2018-02-17T11:09:38.825Z,14.8
2018-02-17T11:10:41.743Z,14.8
2018-02-17T11:11:44.544Z,15.1
2018-02-17T11:12:47.215Z,15.1
2018-02-17T11:13:49.862Z,15.3
2018-02-17T11:14:52.700Z,15.4
2018-02-17T11:15:55.525Z,15.6
2018-02-17T11:17:00.643Z,15.7
2018-02-17T11:18:04.567Z,15.8
2018-02-17T11:19:07.423Z,16
2018-02-17T11:20:10.244Z,16.2
2018-02-17T11:21:13.794Z,16.3
2018-02-17T11:22:16.685Z,16.5
2018-02-17T11:23:20.157Z,16.5
2018-02-17T11:24:23.224Z,16.5
2018-02-17T11:25:26.087Z,16.5
2018-02-17T11:26:28.888Z,16.6
2018-02-17T11:27:31.682Z,16.7
2018-02-17T11:28:34.444Z,16.7
2018-02-17T11:29:37.250Z,16.9
2018-02-17T11:30:39.972Z,17
2018-02-17T11:31:42.969Z,17.1
2018-02-17T11:33:54.022Z,17.3
2018-02-17T11:34:56.851Z,17.3
2018-02-17T11:35:59.616Z,17.3
2018-02-17T11:37:02.567Z,17.4
2018-02-17T11:38:05.428Z,17.4
2018-02-17T11:39:08.347Z,17.5
2018-02-17T11:40:11.105Z,17.5
2018-02-17T11:42:32.190Z,17.8
2018-02-17T11:43:35.200Z,17.8
2018-02-17T11:44:37.958Z,17.9
2018-02-17T11:45:40.659Z,17.9
2018-02-17T11:46:43.651Z,18
2018-02-17T11:47:46.927Z,17.9
2018-02-17T11:48:49.784Z,18
2018-02-17T11:49:52.796Z,17.9
2018-02-17T11:50:55.527Z,17.9
2018-02-17T11:51:58.883Z,17.9
2018-02-17T11:53:01.924Z,17.9
2018-02-17T11:54:04.720Z,17.9
2018-02-17T11:55:07.615Z,17.9
2018-02-17T11:56:10.650Z,17.9
2018-02-17T11:57:13.608Z,17.8
2018-02-17T11:58:16.705Z,17.8
2018-02-17T11:59:19.575Z,17.8
2018-02-17T12:00:28.799Z,17.8
2018-02-17T12:01:31.510Z,17.6
2018-02-17T12:02:34.553Z,17.6
2018-02-17T12:03:37.258Z,17.6
2018-02-17T12:04:39.977Z,17.6
2018-02-17T12:05:43.011Z,17.5
2018-02-17T12:06:45.873Z,17.6
2018-02-17T12:07:48.816Z,17.5
2018-02-17T12:08:52.282Z,17.5
2018-02-17T12:09:55.206Z,17.5
2018-02-17T12:10:58.851Z,17.5
2018-02-17T12:12:01.787Z,17.5
2018-02-17T12:13:05.146Z,17.5
2018-02-17T12:14:09.616Z,17.4
2018-02-17T12:15:12.810Z,17.4
2018-02-17T12:16:16.182Z,17.3
2018-02-17T12:17:20.322Z,17.3
2018-02-17T12:18:23.223Z,17.3
2018-02-17T12:19:25.971Z,17.2
2018-02-17T12:20:28.583Z,17.3
2018-02-17T12:21:32.265Z,17.2
2018-02-17T12:22:35.191Z,17.2
2018-02-17T12:23:39.579Z,17.2
2018-02-17T12:24:42.985Z,17.1
2018-02-17T12:25:46.364Z,17.2
2018-02-17T12:26:49.186Z,17.2
2018-02-17T12:27:51.802Z,17.2
2018-02-17T12:28:57.580Z,17.1
2018-02-17T12:30:00.234Z,17.1
2018-02-17T12:31:09.666Z,17
2018-02-17T12:32:12.503Z,17
2018-02-17T12:33:15.447Z,17
2018-02-17T12:34:18.107Z,17
2018-02-17T12:35:20.984Z,17
2018-02-17T12:36:23.985Z,17
2018-02-17T12:37:26.660Z,17
2018-02-17T12:38:29.426Z,16.9
2018-02-17T12:39:32.075Z,16.9
2018-02-17T12:40:34.843Z,16.9
2018-02-17T12:41:38.101Z,16.9
2018-02-17T12:42:40.899Z,16.7
2018-02-17T12:43:43.795Z,16.8
2018-02-17T12:44:47.115Z,16.8
2018-02-17T12:45:50.437Z,16.8
2018-02-17T12:46:53.171Z,16.8
2018-02-17T12:48:03.324Z,16.6
2018-02-17T12:50:14.137Z,16.7
2018-02-17T12:51:16.788Z,16.7
2018-02-17T12:52:19.581Z,16.6
2018-02-17T12:53:22.997Z,16.6
2018-02-17T12:54:25.974Z,16.6
2018-02-17T12:55:28.606Z,16.6
2018-02-17T12:56:31.389Z,16.5
2018-02-17T12:57:34.227Z,16.7
2018-02-17T12:58:36.906Z,16.7
2018-02-17T12:59:39.701Z,16.7
2018-02-17T13:00:42.852Z,16.7
2018-02-17T13:01:46.198Z,16.9
2018-02-17T13:03:57.847Z,17.2
2018-02-17T13:05:00.847Z,17.4
2018-02-17T13:06:03.987Z,17.6
2018-02-17T13:07:06.720Z,17.6
2018-02-17T13:08:09.434Z,17.7
2018-02-17T13:09:12.572Z,17.8
2018-02-17T13:10:15.728Z,18
2018-02-17T13:11:18.608Z,18.1
2018-02-17T13:12:21.462Z,18.3
2018-02-17T13:13:24.173Z,18.4
2018-02-17T13:14:27.657Z,18.5
2018-02-17T13:15:30.283Z,18.5
2018-02-17T13:16:33.225Z,18.6
2018-02-17T13:17:35.950Z,18.7
2018-02-17T13:18:38.695Z,18.7
2018-02-17T13:19:41.335Z,18.8
2018-02-17T13:20:44.353Z,18.8
2018-02-17T13:21:47.219Z,19
2018-02-17T13:22:50.002Z,19
2018-02-17T13:23:52.994Z,19.1
2018-02-17T13:24:56.658Z,19.1
2018-02-17T13:26:00.117Z,19
2018-02-17T13:27:03.022Z,18.9
2018-02-17T13:28:07.905Z,19.1
2018-02-17T13:29:12.142Z,19
2018-02-17T13:30:15.070Z,19.1
2018-02-17T13:31:17.897Z,19
2018-02-17T13:32:20.689Z,18.9
2018-02-17T13:33:23.595Z,19
2018-02-17T13:34:27.630Z,19
2018-02-17T13:35:32.306Z,19
2018-02-17T13:36:37.936Z,19
2018-02-17T13:37:40.613Z,19
2018-02-17T13:38:53.876Z,19
2018-02-17T13:39:56.797Z,19
2018-02-17T13:40:59.618Z,18.8
2018-02-17T13:42:02.491Z,18.8
2018-02-17T13:43:05.338Z,18.8
2018-02-17T13:44:10.981Z,18.8
2018-02-17T13:45:13.922Z,18.7
2018-02-17T13:46:16.705Z,18.7
2018-02-17T13:47:19.576Z,18.6
2018-02-17T13:48:22.664Z,18.6
2018-02-17T13:49:25.456Z,18.5
2018-02-17T13:50:28.173Z,18.6
2018-02-17T13:51:30.981Z,18.5
2018-02-17T13:52:33.844Z,18.5
2018-02-17T13:53:36.529Z,18.4
2018-02-17T13:54:39.180Z,18.4
2018-02-17T13:55:41.939Z,18.3
2018-02-17T13:56:44.924Z,18.4
2018-02-17T13:57:47.554Z,18.3
2018-02-17T13:58:50.384Z,18.4
2018-02-17T13:59:53.248Z,18.3
2018-02-17T14:00:56.374Z,18.3
2018-02-17T14:01:59.187Z,18.3
2018-02-17T14:03:02.235Z,18.3
2018-02-17T14:04:05.864Z,18.2
2018-02-17T14:05:08.856Z,18.2
2018-02-17T14:06:11.587Z,18.2
2018-02-17T14:07:14.484Z,18.2
2018-02-17T14:08:17.375Z,18.1
2018-02-17T14:09:20.206Z,18.1
2018-02-17T14:10:23.013Z,18.1
2018-02-17T14:11:25.630Z,18
2018-02-17T14:12:28.342Z,18
2018-02-17T14:13:31.593Z,17.9
2018-02-17T14:14:35.243Z,17.9
2018-02-17T14:15:39.279Z,17.9
2018-02-17T14:16:42.187Z,17.9
2018-02-17T14:17:45.199Z,17.8
2018-02-17T14:18:47.934Z,17.8
2018-02-17T14:19:50.576Z,17.7
2018-02-17T14:20:53.437Z,17.7
2018-02-17T14:21:56.515Z,17.7
2018-02-17T14:22:59.316Z,17.7
2018-02-17T14:24:03.840Z,17.6
2018-02-17T14:25:06.613Z,17.5
2018-02-17T14:26:09.382Z,17.6
2018-02-17T14:27:12.335Z,17.6
2018-02-17T14:28:15.448Z,17.5
2018-02-17T14:29:22.991Z,17.5
2018-02-17T14:30:25.787Z,17.5
2018-02-17T14:31:28.621Z,17.4
2018-02-17T14:33:41.580Z,17.3
2018-02-17T14:34:44.385Z,17.2
2018-02-17T14:36:56.344Z,17.2
2018-02-17T14:37:59.001Z,17.1
2018-02-17T14:39:01.789Z,17.1
2018-02-17T14:40:05.472Z,17.1
2018-02-17T14:41:08.235Z,17.1
2018-02-17T14:42:10.877Z,17.1
2018-02-17T14:43:13.890Z,17.2
2018-02-17T14:44:16.746Z,17.1
2018-02-17T14:45:19.644Z,17.1
2018-02-17T14:46:22.260Z,17.1
2018-02-17T14:47:25.399Z,17.1
2018-02-17T14:48:28.141Z,17.1
2018-02-17T14:49:30.879Z,17.1
2018-02-17T14:50:33.628Z,17
2018-02-17T14:51:36.360Z,17
2018-02-17T14:52:39.067Z,17
2018-02-17T14:53:41.902Z,17
2018-02-17T14:54:44.754Z,16.9
2018-02-17T14:55:47.545Z,17
2018-02-17T14:56:50.311Z,16.9
2018-02-17T14:57:53.051Z,16.9
2018-02-17T14:58:55.840Z,16.9
2018-02-17T14:59:58.623Z,16.9
2018-02-17T15:01:01.602Z,17
2018-02-17T15:02:04.417Z,17
2018-02-17T15:03:20.319Z,17.1
2018-02-17T15:04:36.809Z,17.3
2018-02-17T15:05:39.693Z,17.2
2018-02-17T15:07:51.403Z,17.4
2018-02-17T15:08:54.356Z,17.5
2018-02-17T15:09:59.818Z,17.8
2018-02-17T15:11:03.195Z,17.8
2018-02-17T15:12:06.128Z,17.9
2018-02-17T15:13:08.812Z,18
2018-02-17T15:14:11.607Z,18.1
2018-02-17T15:16:35.937Z,18.2
2018-02-17T15:17:39.065Z,18.1
2018-02-17T15:19:56.199Z,18.4
2018-02-17T15:20:58.869Z,18.5
2018-02-17T15:22:02.186Z,18.5
2018-02-17T15:24:14.022Z,18.8
2018-02-17T15:25:16.833Z,18.7
2018-02-17T15:26:19.689Z,18.7
2018-02-17T15:27:27.195Z,18.7
2018-02-17T15:28:30.114Z,18.8
2018-02-17T15:29:32.906Z,18.8
2018-02-17T15:30:35.824Z,18.7
2018-02-17T15:31:38.682Z,18.7
2018-02-17T15:32:42.142Z,18.7
2018-02-17T15:33:45.052Z,18.8
2018-02-17T15:34:47.899Z,18.7
2018-02-17T15:35:51.355Z,18.6
2018-02-17T15:36:54.292Z,18.6
2018-02-17T15:37:57.547Z,18.4
2018-02-17T15:39:00.384Z,18.6
2018-02-17T15:40:03.198Z,18.6
2018-02-17T15:41:06.562Z,18.4
2018-02-17T15:42:09.541Z,18.4
2018-02-17T15:43:12.755Z,18.4
2018-02-17T15:44:15.964Z,18.4
2018-02-17T15:45:19.009Z,18.3
2018-02-17T15:46:22.648Z,18.3
2018-02-17T15:48:35.245Z,18.2
2018-02-17T15:49:38.051Z,18.2
2018-02-17T15:50:40.745Z,18.1
2018-02-17T15:51:43.393Z,18.1
2018-02-17T15:52:46.193Z,18.1
2018-02-17T15:53:49.036Z,18.1
2018-02-17T15:54:52.450Z,18.1
2018-02-17T15:55:55.726Z,18
2018-02-17T15:56:59.042Z,18
2018-02-17T15:58:01.691Z,17.9
2018-02-17T15:59:05.259Z,17.9
2018-02-17T16:00:08.123Z,17.8
2018-02-17T16:01:10.712Z,17.8
2018-02-17T16:02:13.664Z,17.8
2018-02-17T16:03:16.730Z,17.7
2018-02-17T16:04:19.627Z,17.6
2018-02-17T16:05:22.579Z,17.6
2018-02-17T16:06:32.337Z,17.6
2018-02-17T16:07:36.119Z,17.4
2018-02-17T16:08:38.921Z,17.5
2018-02-17T16:09:42.608Z,17.5
2018-02-17T16:10:45.440Z,17.4
2018-02-17T16:11:49.131Z,17.4
2018-02-17T16:12:51.807Z,17.3
2018-02-17T16:13:55.312Z,17.3
2018-02-17T16:14:58.589Z,17.3
2018-02-17T16:16:01.557Z,17.2
2018-02-17T16:17:04.824Z,17.2
2018-02-17T16:18:08.189Z,17.1
2018-02-17T16:19:11.138Z,17.1
2018-02-17T16:20:14.015Z,17
2018-02-17T16:21:17.597Z,17
2018-02-17T16:22:20.707Z,16.8
2018-02-17T16:23:23.403Z,16.8
2018-02-17T16:24:26.317Z,16.7
2018-02-17T16:25:29.684Z,16.5
2018-02-17T16:26:32.702Z,16.6
2018-02-17T16:28:48.275Z,16.5
2018-02-17T16:29:51.297Z,16.6
2018-02-17T16:30:54.139Z,16.7
2018-02-17T16:31:56.988Z,16.5
2018-02-17T16:32:59.871Z,16.5
2018-02-17T16:34:03.547Z,16.5
2018-02-17T16:35:06.322Z,16.5
2018-02-17T16:36:09.007Z,16.4
2018-02-17T16:37:11.857Z,16.4
2018-02-17T16:38:15.165Z,16.5
2018-02-17T16:39:17.888Z,16.5
2018-02-17T16:40:20.795Z,16.5
2018-02-17T16:41:23.553Z,16.5
2018-02-17T16:42:26.488Z,16.4
2018-02-17T16:43:29.400Z,16.4
2018-02-17T16:44:31.997Z,16.4
2018-02-17T16:45:37.250Z,16.3
2018-02-17T16:46:40.116Z,16.3
2018-02-17T16:47:43.366Z,16.2
2018-02-17T16:48:46.433Z,16.1
2018-02-17T16:50:00.174Z,16.2
2018-02-17T16:51:03.176Z,16.2
2018-02-17T16:52:06.038Z,16.2
2018-02-17T16:53:08.987Z,16.2
2018-02-17T16:54:12.456Z,16.1
2018-02-17T16:55:15.313Z,16.2
2018-02-17T16:56:18.179Z,16
2018-02-17T16:57:21.096Z,16.1
2018-02-17T16:58:23.816Z,16.1
2018-02-17T16:59:26.765Z,16.2
2018-02-17T17:00:29.476Z,16.3
2018-02-17T17:01:32.382Z,16.4
2018-02-17T17:02:35.541Z,16.5
2018-02-17T17:03:39.203Z,16.6
2018-02-17T17:04:42.047Z,16.8
2018-02-17T17:05:54.162Z,16.7
2018-02-17T17:06:57.109Z,16.9
2018-02-17T17:07:59.797Z,17
2018-02-17T17:09:02.558Z,17.2
2018-02-17T17:10:05.505Z,17.2
2018-02-17T17:11:08.275Z,17.3
2018-02-17T17:12:11.488Z,17.3
2018-02-17T17:13:14.565Z,17.3
2018-02-17T17:14:17.646Z,17.4
2018-02-17T17:15:21.320Z,17.5
2018-02-17T17:16:24.381Z,17.5
2018-02-17T17:17:27.314Z,17.7
2018-02-17T17:18:30.162Z,17.8
2018-02-17T17:19:32.905Z,18
2018-02-17T17:20:35.810Z,18
2018-02-17T17:21:38.571Z,18
2018-02-17T17:22:41.226Z,18.1
2018-02-17T17:23:43.961Z,18.2
2018-02-17T17:24:46.629Z,18.2
2018-02-17T17:25:49.362Z,18.2
2018-02-17T17:26:52.737Z,18.1
2018-02-17T17:28:03.204Z,18.2
2018-02-17T17:29:06.770Z,18.1
2018-02-17T17:30:09.432Z,18.2
2018-02-17T17:31:12.949Z,18.1
2018-02-17T17:32:28.424Z,18.1
2018-02-17T17:33:31.092Z,18.1
2018-02-17T17:34:33.700Z,18
2018-02-17T17:35:37.132Z,18
2018-02-17T17:36:39.790Z,18
2018-02-17T17:37:42.483Z,18
2018-02-17T17:38:52.939Z,17.9
2018-02-17T17:39:55.698Z,17.8
2018-02-17T17:40:58.294Z,17.9
2018-02-17T17:42:00.936Z,17.8
2018-02-17T17:43:03.612Z,17.7
2018-02-17T17:44:06.335Z,17.7
2018-02-17T17:45:08.961Z,17.6
2018-02-17T17:46:11.831Z,17.6
2018-02-17T17:47:14.922Z,17.5
2018-02-17T17:48:17.759Z,17.5
2018-02-17T17:49:20.358Z,17.5
2018-02-17T17:50:23.060Z,17.4
2018-02-17T17:51:25.819Z,17.4
2018-02-17T17:52:28.513Z,17.3
2018-02-17T17:53:31.272Z,17.4
2018-02-17T17:54:34.038Z,17.3
2018-02-17T17:55:36.815Z,17.3
2018-02-17T17:56:39.497Z,17.1
2018-02-17T17:57:42.152Z,17.2
2018-02-17T17:58:45.024Z,17
2018-02-17T17:59:47.713Z,17.1
2018-02-17T18:00:50.479Z,17
2018-02-17T18:01:53.107Z,16.9
2018-02-17T18:02:55.864Z,16.8
2018-02-17T18:03:58.527Z,17
2018-02-17T18:05:02.064Z,17
2018-02-17T18:06:04.922Z,17.1
2018-02-17T18:07:07.641Z,17.2
2018-02-17T18:08:10.409Z,17.2
2018-02-17T18:09:13.102Z,17.5
2018-02-17T18:10:15.965Z,17.7
2018-02-17T18:11:18.768Z,17.8
2018-02-17T18:12:21.580Z,17.7
2018-02-17T18:13:24.228Z,17.7
2018-02-17T18:14:27.675Z,17.7
2018-02-17T18:15:30.548Z,17.7
2018-02-17T18:16:33.384Z,17.8
2018-02-17T18:17:36.399Z,17.8
2018-02-17T18:18:39.508Z,17.9
2018-02-17T18:19:42.418Z,17.9
2018-02-17T18:20:45.557Z,18
2018-02-17T18:21:48.204Z,18.1
2018-02-17T18:22:52.171Z,18.1
2018-02-17T18:23:56.870Z,18.1
2018-02-17T18:24:59.891Z,18.2
2018-02-17T18:26:02.918Z,18.3
2018-02-17T18:27:05.710Z,18.1
2018-02-17T18:28:09.994Z,18.3
2018-02-17T18:29:14.145Z,18.4
2018-02-17T18:30:20.515Z,18.5
2018-02-17T18:31:23.328Z,18.6
2018-02-17T18:32:26.634Z,18.7
2018-02-17T18:33:29.744Z,18.8
2018-02-17T18:34:35.398Z,18.8
2018-02-17T18:35:38.193Z,18.8
2018-02-17T18:36:40.900Z,18.8
2018-02-17T18:37:43.563Z,18.8
2018-02-17T18:38:46.446Z,18.8
2018-02-17T18:39:49.133Z,18.8
2018-02-17T18:40:56.825Z,18.9
2018-02-17T18:41:59.496Z,19.1
2018-02-17T18:43:02.491Z,19.2
2018-02-17T18:44:05.412Z,19.2
2018-02-17T18:45:08.194Z,19.3
2018-02-17T18:46:11.072Z,19.2
2018-02-17T18:47:13.960Z,19.2
2018-02-17T18:48:16.688Z,19.3
2018-02-17T18:49:19.664Z,19.2
2018-02-17T18:51:30.955Z,19.1
2018-02-17T18:52:33.697Z,19
2018-02-17T18:53:37.145Z,19
2018-02-17T18:54:39.895Z,19
2018-02-17T18:55:42.709Z,19
2018-02-17T18:56:46.599Z,18.8
2018-02-17T18:57:49.410Z,18.8
2018-02-17T18:58:52.556Z,18.8
2018-02-17T18:59:55.471Z,18.8
2018-02-17T19:00:58.362Z,18.7
2018-02-17T19:02:01.470Z,18.7
2018-02-17T19:03:04.535Z,18.7
2018-02-17T19:04:07.529Z,18.5
2018-02-17T19:05:10.286Z,18.5
2018-02-17T19:06:14.061Z,18.4
2018-02-17T19:07:25.456Z,18.4
2018-02-17T19:08:28.260Z,18.3
2018-02-17T19:09:30.974Z,18.3
2018-02-17T19:10:33.745Z,18.3
2018-02-17T19:12:53.412Z,18.2
2018-02-17T19:15:06.711Z,18.1
2018-02-17T19:16:09.346Z,18.1
2018-02-17T19:17:12.175Z,18.1
2018-02-17T19:18:15.047Z,18
2018-02-17T19:19:17.784Z,18
2018-02-17T19:20:20.460Z,17.8
2018-02-17T19:21:23.203Z,17.8
2018-02-17T19:22:26.044Z,17.9
2018-02-17T19:23:28.665Z,17.8
2018-02-17T19:24:31.497Z,17.7
2018-02-17T19:25:34.082Z,17.6
2018-02-17T19:26:36.875Z,17.6
2018-02-17T19:27:39.954Z,17.5
2018-02-17T19:28:42.737Z,17.5
2018-02-17T19:29:45.679Z,17.4
2018-02-17T19:30:48.265Z,17.4
2018-02-17T19:31:50.941Z,17.3
2018-02-17T19:32:54.681Z,17.2
2018-02-17T19:33:57.409Z,17.1
2018-02-17T19:35:00.223Z,17.1
2018-02-17T19:36:02.900Z,16.9
2018-02-17T19:37:12.178Z,16.9
2018-02-17T19:38:14.959Z,16.9
2018-02-17T19:39:17.599Z,16.8
2018-02-17T19:40:20.278Z,16.7
2018-02-17T19:41:22.956Z,16.6
2018-02-17T19:43:37.250Z,16.6
2018-02-17T19:44:39.928Z,16.5
2018-02-17T19:45:42.573Z,16.5
2018-02-17T19:46:45.414Z,16.5
2018-02-17T19:47:48.285Z,16.7
2018-02-17T19:48:54.096Z,16.7
2018-02-17T19:49:57.032Z,16.9
2018-02-17T19:50:59.772Z,17
2018-02-17T19:52:03.119Z,17.2
2018-02-17T19:53:05.864Z,17.4
2018-02-17T19:54:08.545Z,17.4
2018-02-17T19:55:11.142Z,17.4
2018-02-17T19:56:13.936Z,17.5
2018-02-17T19:57:16.668Z,17.6
2018-02-17T19:58:19.492Z,17.6
2018-02-17T19:59:22.317Z,17.8
2018-02-17T20:00:25.405Z,17.9
2018-02-17T20:01:28.124Z,18
2018-02-17T20:02:30.807Z,18.1
2018-02-17T20:03:33.525Z,18.3
2018-02-17T20:04:36.480Z,18.3
2018-02-17T20:05:39.518Z,18.3
2018-02-17T20:06:42.180Z,18.2
2018-02-17T20:07:44.997Z,18.2
2018-02-17T20:08:47.730Z,18.4
2018-02-17T20:09:50.483Z,18.5
2018-02-17T20:10:53.411Z,18.6
2018-02-17T20:11:56.122Z,18.7
2018-02-17T20:12:59.042Z,18.7
2018-02-17T20:14:01.783Z,18.9
2018-02-17T20:15:04.529Z,18.9
2018-02-17T20:16:07.316Z,18.8
2018-02-17T20:17:09.953Z,18.8
2018-02-17T20:18:12.618Z,19
2018-02-17T20:19:15.600Z,18.9
2018-02-17T20:20:18.321Z,19
2018-02-17T20:21:21.014Z,19.2
2018-02-17T20:22:23.670Z,19.2
2018-02-17T20:23:26.422Z,19.3
2018-02-17T20:24:29.906Z,19.3
2018-02-17T20:25:32.557Z,19.2
2018-02-17T20:26:35.371Z,19.2
2018-02-17T20:27:38.126Z,19.2
2018-02-17T20:28:41.472Z,19.2
2018-02-17T20:29:44.670Z,19.1
2018-02-17T20:30:47.381Z,19.1
2018-02-17T20:31:50.161Z,19.1
2018-02-17T20:32:53.005Z,19
2018-02-17T20:33:55.769Z,19
2018-02-17T20:34:58.497Z,18.9
2018-02-17T20:36:01.261Z,19
2018-02-17T20:37:04.096Z,18.8
2018-02-17T20:39:18.203Z,18.8
2018-02-17T20:40:20.960Z,18.5
2018-02-17T20:41:23.645Z,18.6
2018-02-17T20:42:26.486Z,18.6
2018-02-17T20:43:29.239Z,18.5
2018-02-17T20:44:32.190Z,18.4
2018-02-17T20:45:34.984Z,18.4
2018-02-17T20:46:37.887Z,18.3
2018-02-17T20:47:40.653Z,18.3
2018-02-17T20:48:43.755Z,18.3
2018-02-17T20:49:46.555Z,18.3
2018-02-17T20:50:49.241Z,18.2
2018-02-17T20:51:52.100Z,18.1
2018-02-17T20:52:55.098Z,18.1
2018-02-17T20:53:58.293Z,18.1
2018-02-17T20:55:00.979Z,18
2018-02-17T20:56:03.813Z,17.9
2018-02-17T20:57:11.676Z,17.9
2018-02-17T20:58:14.357Z,17.8
2018-02-17T21:00:28.428Z,17.7
2018-02-17T21:01:31.245Z,17.7
2018-02-17T21:02:33.881Z,17.6
2018-02-17T21:03:36.694Z,17.6
2018-02-17T21:04:39.373Z,17.5
2018-02-17T21:05:42.073Z,17.5
2018-02-17T21:06:44.663Z,17.4
2018-02-17T21:07:47.814Z,17.3
2018-02-17T21:08:50.793Z,17.2
2018-02-17T21:09:53.577Z,17.2
2018-02-17T21:10:56.669Z,17
2018-02-17T21:11:59.363Z,16.9
2018-02-17T21:13:02.262Z,16.9
2018-02-17T21:14:04.978Z,16.8
2018-02-17T21:15:07.673Z,16.6
2018-02-17T21:16:10.541Z,16.5
2018-02-17T21:17:13.383Z,16.5
2018-02-17T21:18:16.293Z,16.5
2018-02-17T21:19:19.107Z,16.6
2018-02-17T21:20:21.827Z,16.8
2018-02-17T21:21:24.572Z,16.8
2018-02-17T21:22:27.261Z,16.9
2018-02-17T21:23:29.850Z,16.9
2018-02-17T21:24:32.413Z,16.9
2018-02-17T21:25:35.122Z,16.9
2018-02-17T21:26:38.279Z,16.9
2018-02-17T21:27:40.857Z,16.9
2018-02-17T21:28:43.592Z,16.9
2018-02-17T21:29:46.601Z,16.9
2018-02-17T21:30:54.931Z,16.9
2018-02-17T21:31:57.654Z,16.9
2018-02-17T21:33:00.598Z,16.8
2018-02-17T21:34:03.317Z,16.8
2018-02-17T21:35:05.989Z,16.7
2018-02-17T21:36:08.797Z,16.6
2018-02-17T21:37:11.685Z,16.7
2018-02-17T21:38:14.425Z,16.7
2018-02-17T21:39:17.030Z,16.7
2018-02-17T21:40:19.769Z,16.6
2018-02-17T21:41:25.849Z,16.4
2018-02-17T21:42:28.601Z,16.5
2018-02-17T21:43:31.261Z,16.5
2018-02-17T21:44:34.167Z,16.5
2018-02-17T21:45:36.922Z,16.5
2018-02-17T21:46:42.949Z,16.5
2018-02-17T21:47:45.730Z,16.4
2018-02-17T21:48:49.252Z,16.5
2018-02-17T21:49:52.084Z,16.5
2018-02-17T21:50:54.838Z,16.4
2018-02-17T21:51:58.052Z,16.5
2018-02-17T21:53:01.348Z,16.4
2018-02-17T21:54:04.386Z,16.5
2018-02-17T21:55:07.378Z,16.3
2018-02-17T21:56:10.173Z,16.3
2018-02-17T21:57:12.810Z,16.4
2018-02-17T21:58:15.434Z,16.3
2018-02-17T21:59:18.296Z,16.3
2018-02-17T22:00:20.964Z,16.2
2018-02-17T22:01:23.668Z,16.2
2018-02-17T22:02:26.545Z,16.2
2018-02-17T22:03:29.341Z,16.2
2018-02-17T22:04:32.020Z,16.2
2018-02-17T22:05:34.955Z,16.1
2018-02-17T22:06:37.755Z,16.2
2018-02-17T22:07:40.638Z,16.2
2018-02-17T22:08:43.231Z,16.1
2018-02-17T22:09:45.824Z,16.1
2018-02-17T22:10:48.658Z,16
2018-02-17T22:11:51.363Z,16
2018-02-17T22:12:54.163Z,16
2018-02-17T22:13:57.084Z,16.1
2018-02-17T22:14:59.864Z,16
2018-02-17T22:16:02.590Z,16
2018-02-17T22:17:05.324Z,15.8
2018-02-17T22:18:08.171Z,15.9
2018-02-17T22:19:10.997Z,15.9
2018-02-17T22:20:13.798Z,16
2018-02-17T22:21:16.501Z,15.9
2018-02-17T22:22:19.177Z,15.9
2018-02-17T22:23:25.785Z,15.9
2018-02-17T22:24:28.548Z,15.8
2018-02-17T22:25:31.191Z,15.9
2018-02-17T22:26:33.846Z,15.9
2018-02-17T22:27:36.532Z,15.9
2018-02-17T22:28:39.317Z,15.9
2018-02-17T22:29:41.950Z,15.9
2018-02-17T22:30:44.709Z,15.9
2018-02-17T22:31:47.649Z,15.9
2018-02-17T22:32:50.420Z,15.9
2018-02-17T22:33:52.937Z,15.8
2018-02-17T22:34:55.588Z,15.8
2018-02-17T22:35:59.233Z,15.8
2018-02-17T22:37:02.008Z,15.8
2018-02-17T22:38:04.768Z,15.8
2018-02-17T22:39:07.803Z,15.8
2018-02-17T22:40:10.586Z,15.7
2018-02-17T22:41:13.264Z,15.7
2018-02-17T22:42:15.950Z,15.7
2018-02-17T22:43:18.700Z,15.6
2018-02-17T22:44:21.765Z,15.6
2018-02-17T22:45:24.544Z,15.5
2018-02-17T22:46:27.569Z,15.6
2018-02-17T22:47:30.300Z,15.6
2018-02-17T22:48:33.362Z,15.5
2018-02-17T22:49:36.108Z,15.5
2018-02-17T22:50:39.778Z,15.6
2018-02-17T22:51:43.107Z,15.6
2018-02-17T22:52:45.994Z,15.5
2018-02-17T22:53:48.875Z,15.5
2018-02-17T22:54:51.809Z,15.5
2018-02-17T22:55:55.185Z,15.6
2018-02-17T22:56:57.992Z,15.5
2018-02-17T22:58:00.825Z,15.4
2018-02-17T22:59:03.605Z,15.4
2018-02-17T23:00:06.507Z,15.4
2018-02-17T23:01:09.899Z,15.4
2018-02-17T23:02:13.098Z,15.4
2018-02-17T23:03:16.244Z,15.5
2018-02-17T23:04:18.994Z,15.4
2018-02-17T23:05:21.600Z,15.4
2018-02-17T23:06:24.521Z,15.4
2018-02-17T23:07:27.391Z,15.4
2018-02-17T23:08:30.051Z,15.4
2018-02-17T23:09:32.599Z,15.3
2018-02-17T23:10:35.376Z,15.3
2018-02-17T23:11:38.234Z,15.2
2018-02-17T23:12:40.962Z,15.3
2018-02-17T23:13:43.733Z,15.4
2018-02-17T23:14:46.393Z,15.3